createdAt,value
2023-03-19T00:01:38.963Z,26.50
2023-03-19T00:03:40.636Z,27.42
2023-03-19T00:05:42.233Z,30.13
2023-03-19T00:07:44.317Z,29.50
2023-03-19T00:09:48.490Z,33.40
2023-03-19T00:11:50.157Z,31.80
2023-03-19T00:13:51.871Z,31.20
2023-03-19T00:15:53.387Z,30.08
2023-03-19T00:17:56.590Z,28.33
2023-03-19T00:19:58.192Z,29.98
2023-03-19T00:21:59.711Z,32.72
2023-03-19T00:24:02.771Z,34.67
2023-03-19T00:26:04.655Z,32.00
2023-03-19T00:28:06.178Z,31.20
2023-03-19T00:30:09.013Z,31.80
2023-03-19T00:32:10.640Z,29.67
2023-03-19T00:34:13.360Z,30.67
2023-03-19T00:36:16.455Z,30.70
2023-03-19T00:38:17.940Z,30.95
2023-03-19T00:40:19.757Z,33.13
2023-03-19T00:42:21.337Z,31.15
2023-03-19T00:44:22.959Z,26.92
2023-03-19T00:46:25.701Z,27.35
2023-03-19T00:48:27.249Z,30.45
2023-03-19T00:50:28.773Z,32.53
2023-03-19T00:52:30.586Z,31.90
2023-03-19T00:54:32.469Z,28.63
2023-03-19T00:56:33.999Z,28.02
2023-03-19T00:58:35.731Z,26.35
2023-03-19T01:00:38.879Z,32.00
2023-03-19T01:02:40.518Z,29.17
2023-03-19T01:04:42.123Z,29.23
2023-03-19T01:06:44.129Z,29.50
2023-03-19T01:08:45.648Z,28.63
2023-03-19T01:10:47.367Z,28.60
2023-03-19T01:12:49.609Z,29.67
2023-03-19T01:14:51.167Z,34.30
2023-03-19T01:16:52.648Z,45.47
2023-03-19T01:18:54.317Z,42.95
2023-03-19T01:20:56.073Z,102.03
2023-03-19T01:22:57.708Z,40.67
2023-03-19T01:24:59.194Z,27.83
2023-03-19T01:27:01.225Z,28.40
2023-03-19T01:29:02.783Z,29.00
2023-03-19T01:31:08.590Z,30.67
2023-03-19T01:33:10.217Z,31.98
2023-03-19T01:35:11.808Z,32.13
2023-03-19T01:37:13.723Z,30.05
2023-03-19T01:39:15.235Z,28.70
2023-03-19T01:41:17.285Z,28.92
2023-03-19T01:43:27.304Z,27.70
2023-03-19T01:45:31.744Z,26.85
2023-03-19T01:47:38.271Z,26.80
2023-03-19T01:49:40.745Z,27.88
2023-03-19T01:51:45.795Z,27.52
2023-03-19T01:53:53.658Z,27.88
2023-03-19T01:56:03.023Z,27.17
2023-03-19T01:58:06.748Z,28.17
2023-03-19T02:00:09.274Z,31.10
2023-03-19T02:02:14.126Z,31.67
2023-03-19T02:04:15.832Z,31.52
2023-03-19T02:06:21.047Z,31.40
2023-03-19T02:08:24.086Z,31.88
2023-03-19T02:10:27.234Z,31.00
2023-03-19T02:12:29.151Z,36.30
2023-03-19T02:14:31.586Z,31.90
2023-03-19T02:16:33.272Z,31.42
2023-03-19T02:18:36.267Z,31.08
2023-03-19T02:20:44.468Z,29.17
2023-03-19T02:23:00.889Z,31.13
2023-03-19T02:25:09.817Z,29.35
2023-03-19T02:27:11.626Z,21.90
2023-03-19T02:29:13.966Z,28.10
2023-03-19T02:31:19.159Z,29.30
2023-03-19T02:33:21.187Z,32.75
2023-03-19T02:35:22.697Z,31.73
2023-03-19T02:37:28.243Z,35.25
2023-03-19T02:39:36.422Z,28.85
2023-03-19T02:41:41.678Z,29.05
2023-03-19T02:43:43.310Z,28.05
2023-03-19T02:45:45.422Z,29.40
2023-03-19T02:47:47.569Z,31.45
2023-03-19T02:49:49.101Z,33.83
2023-03-19T02:51:51.826Z,37.83
2023-03-19T02:53:53.443Z,35.83
2023-03-19T02:55:54.924Z,34.88
2023-03-19T02:57:56.565Z,35.40
2023-03-19T02:59:58.182Z,35.03
2023-03-19T03:01:59.893Z,31.15
2023-03-19T03:04:01.434Z,30.13
2023-03-19T03:06:03.153Z,29.15
2023-03-19T03:08:04.908Z,29.35
2023-03-19T03:10:08.352Z,26.80
2023-03-19T03:12:10.024Z,27.63
2023-03-19T03:14:11.975Z,27.08
2023-03-19T03:16:13.687Z,25.33
2023-03-19T03:18:15.276Z,23.45
2023-03-19T03:20:17.777Z,26.85
2023-03-19T03:22:19.355Z,27.50
2023-03-19T03:24:21.193Z,28.38
2023-03-19T03:26:22.774Z,27.50
2023-03-19T03:28:24.733Z,26.45
2023-03-19T03:30:26.769Z,25.83
2023-03-19T03:32:28.258Z,26.48
2023-03-19T03:34:29.811Z,25.98
2023-03-19T03:36:31.364Z,25.23
2023-03-19T03:38:33.016Z,26.27
2023-03-19T03:40:35.078Z,24.95
2023-03-19T03:42:37.479Z,25.67
2023-03-19T03:44:39.195Z,29.50
2023-03-19T03:46:40.857Z,36.67
2023-03-19T03:48:42.387Z,29.95
2023-03-19T03:50:44.049Z,27.50
2023-03-19T03:52:45.562Z,28.02
2023-03-19T03:54:47.078Z,29.27
2023-03-19T03:56:50.231Z,29.40
2023-03-19T03:58:52.393Z,36.03
2023-03-19T04:00:55.016Z,29.00
2023-03-19T04:02:56.670Z,28.85
2023-03-19T04:04:58.377Z,27.80
2023-03-19T04:07:00.884Z,27.20
2023-03-19T04:09:02.792Z,26.33
2023-03-19T04:11:07.742Z,25.48
2023-03-19T04:13:11.140Z,26.13
2023-03-19T04:15:13.165Z,29.25
2023-03-19T04:17:14.698Z,27.10
2023-03-19T04:19:16.301Z,29.17
2023-03-19T04:21:17.789Z,30.73
2023-03-19T04:23:19.286Z,29.45
2023-03-19T04:25:20.896Z,28.48
2023-03-19T04:27:22.506Z,26.25
2023-03-19T04:29:24.166Z,26.77
2023-03-19T04:31:25.946Z,29.20
2023-03-19T04:33:27.531Z,31.75
2023-03-19T04:35:29.096Z,33.70
2023-03-19T04:37:30.758Z,33.97
2023-03-19T04:39:33.545Z,38.85
2023-03-19T04:41:35.076Z,38.50
2023-03-19T04:43:37.181Z,41.38
2023-03-19T04:45:38.748Z,47.75
2023-03-19T04:47:40.393Z,39.22
2023-03-19T04:49:42.446Z,32.38
2023-03-19T04:51:44.129Z,30.95
2023-03-19T04:53:45.667Z,30.52
2023-03-19T04:55:47.409Z,33.65
2023-03-19T04:57:49.036Z,36.78
2023-03-19T04:59:50.684Z,36.75
2023-03-19T05:01:52.199Z,41.10
2023-03-19T05:03:53.881Z,41.00
2023-03-19T05:05:55.459Z,42.60
2023-03-19T05:07:57.410Z,48.13
2023-03-19T05:09:59.176Z,38.17
2023-03-19T05:12:00.955Z,39.22
2023-03-19T05:14:03.032Z,37.67
2023-03-19T05:16:05.011Z,35.50
2023-03-19T05:18:06.908Z,33.20
2023-03-19T05:20:09.795Z,33.33
2023-03-19T05:22:11.500Z,31.00
2023-03-19T05:24:13.262Z,32.22
2023-03-19T05:26:16.002Z,33.13
2023-03-19T05:28:17.846Z,30.30
2023-03-19T05:30:19.418Z,30.65
2023-03-19T05:32:21.244Z,33.88
2023-03-19T05:34:23.546Z,32.17
2023-03-19T05:36:25.376Z,28.08
2023-03-19T05:38:26.938Z,27.67
2023-03-19T05:40:28.588Z,26.90
2023-03-19T05:42:30.526Z,25.52
2023-03-19T05:44:32.046Z,27.10
2023-03-19T05:46:33.583Z,25.83
2023-03-19T05:48:35.193Z,25.05
2023-03-19T05:50:36.954Z,25.42
2023-03-19T05:52:38.525Z,21.83
2023-03-19T05:54:41.353Z,22.88
2023-03-19T05:56:42.936Z,22.48
2023-03-19T05:58:44.512Z,22.80
2023-03-19T06:00:46.654Z,20.75
2023-03-19T06:02:48.421Z,20.80
2023-03-19T06:04:50.141Z,21.08
2023-03-19T06:06:51.939Z,21.08
2023-03-19T06:08:53.618Z,21.90
2023-03-19T06:10:55.228Z,23.08
2023-03-19T06:12:56.820Z,22.45
2023-03-19T06:14:58.371Z,24.60
2023-03-19T06:16:59.936Z,25.00
2023-03-19T06:19:01.860Z,24.13
2023-03-19T06:21:03.773Z,23.60
2023-03-19T06:23:05.635Z,23.90
2023-03-19T06:25:07.820Z,24.77
2023-03-19T06:27:09.828Z,22.08
2023-03-19T06:29:11.486Z,20.40
2023-03-19T06:31:13.277Z,22.52
2023-03-19T06:33:14.831Z,23.65
2023-03-19T06:35:16.721Z,24.60
2023-03-19T06:37:19.174Z,23.92
2023-03-19T06:39:21.195Z,24.05
2023-03-19T06:41:24.956Z,21.67
2023-03-19T06:43:26.731Z,32.28
2023-03-19T06:45:28.435Z,27.90
2023-03-19T06:47:30.068Z,176.05
2023-03-19T06:49:32.517Z,46.83
2023-03-19T06:51:34.441Z,25.70
2023-03-19T06:53:36.074Z,25.17
2023-03-19T06:55:37.689Z,24.20
2023-03-19T06:57:39.532Z,29.88
2023-03-19T06:59:41.163Z,30.58
2023-03-19T07:01:42.983Z,36.58
2023-03-19T07:03:44.685Z,36.38
2023-03-19T07:05:49.941Z,29.15
2023-03-19T07:07:51.665Z,29.95
2023-03-19T07:09:53.330Z,21.80
2023-03-19T07:11:54.974Z,21.92
2023-03-19T07:13:56.522Z,22.83
2023-03-19T07:15:58.048Z,19.10
2023-03-19T07:17:59.750Z,24.88
2023-03-19T07:20:01.288Z,16.13
2023-03-19T07:22:03.420Z,15.98
2023-03-19T07:24:05.299Z,14.50
2023-03-19T07:26:07.209Z,16.17
2023-03-19T07:28:08.920Z,14.27
2023-03-19T07:30:12.163Z,13.70
2023-03-19T07:32:13.936Z,13.27
2023-03-19T07:34:15.509Z,12.52
2023-03-19T07:36:17.180Z,15.43
2023-03-19T07:38:18.687Z,12.65
2023-03-19T07:40:20.444Z,15.98
2023-03-19T07:42:21.990Z,14.68
2023-03-19T07:44:23.807Z,14.27
2023-03-19T07:46:25.497Z,13.48
2023-03-19T07:48:27.334Z,11.65
2023-03-19T07:50:32.075Z,9.88
2023-03-19T07:52:33.774Z,10.60
2023-03-19T07:54:41.704Z,10.48
2023-03-19T07:56:43.562Z,9.88
2023-03-19T07:58:45.050Z,9.82
2023-03-19T08:00:46.752Z,10.85
2023-03-19T08:02:48.395Z,10.57
2023-03-19T08:04:50.110Z,9.32
2023-03-19T08:06:51.677Z,13.73
2023-03-19T08:08:53.170Z,10.57
2023-03-19T08:10:55.167Z,6.93
2023-03-19T08:12:56.841Z,5.72
2023-03-19T08:14:58.391Z,4.65
2023-03-19T08:17:00.705Z,4.47
2023-03-19T08:19:02.436Z,4.03
2023-03-19T08:21:04.237Z,4.60
2023-03-19T08:23:06.194Z,5.25
2023-03-19T08:25:09.397Z,5.18
2023-03-19T08:27:11.230Z,5.03
2023-03-19T08:29:12.837Z,4.97
2023-03-19T08:31:14.785Z,4.72
2023-03-19T08:33:16.917Z,5.43
2023-03-19T08:35:18.611Z,5.00
2023-03-19T08:37:20.219Z,5.20
2023-03-19T08:39:21.849Z,4.57
2023-03-19T08:41:23.723Z,4.78
2023-03-19T08:43:25.229Z,5.57
2023-03-19T08:45:26.818Z,4.75
2023-03-19T08:47:28.367Z,5.57
2023-03-19T08:49:30.006Z,5.38
2023-03-19T08:51:31.996Z,5.45
2023-03-19T08:53:33.625Z,5.43
2023-03-19T08:55:35.301Z,6.10
2023-03-19T08:57:36.987Z,6.00
2023-03-19T08:59:38.486Z,7.07
2023-03-19T09:01:40.025Z,5.72
2023-03-19T09:03:43.485Z,5.30
2023-03-19T09:05:45.495Z,6.40
2023-03-19T09:07:47.395Z,6.25
2023-03-19T09:09:49.259Z,6.05
2023-03-19T09:11:51.197Z,6.65
2023-03-19T09:13:52.745Z,5.47
2023-03-19T09:15:54.555Z,6.22
2023-03-19T09:18:02.185Z,8.32
2023-03-19T09:20:05.803Z,7.35
2023-03-19T09:22:07.346Z,8.60
2023-03-19T09:24:09.205Z,14.23
2023-03-19T09:26:10.845Z,21.38
2023-03-19T09:28:12.748Z,10.25
2023-03-19T09:30:14.495Z,6.40
2023-03-19T09:32:16.408Z,6.50
2023-03-19T09:34:18.724Z,9.80
2023-03-19T09:36:20.283Z,6.72
2023-03-19T09:38:22.452Z,9.65
2023-03-19T09:40:41.641Z,8.65
2023-03-19T09:42:43.932Z,7.65
2023-03-19T09:44:46.570Z,10.68
2023-03-19T09:47:06.477Z,8.00
2023-03-19T09:49:25.102Z,9.43
2023-03-19T09:51:39.358Z,9.95
2023-03-19T09:54:06.632Z,9.90
2023-03-19T09:56:17.341Z,10.98
2023-03-19T09:58:21.291Z,9.50
2023-03-19T10:00:25.991Z,8.70
2023-03-19T10:02:42.799Z,8.40
2023-03-19T10:04:49.043Z,7.55
2023-03-19T10:06:58.554Z,7.57
2023-03-19T10:09:28.520Z,13.20
2023-03-19T10:12:03.765Z,12.55
2023-03-19T10:14:14.599Z,8.65
2023-03-19T10:16:26.276Z,7.00
2023-03-19T10:18:34.930Z,7.15
2023-03-19T10:21:10.257Z,6.75
2023-03-19T10:23:20.525Z,9.10
2023-03-19T10:25:27.875Z,6.50
2023-03-19T10:27:29.801Z,6.43
2023-03-19T10:29:31.663Z,7.03
2023-03-19T10:31:47.402Z,7.78
2023-03-19T10:34:11.397Z,8.07
2023-03-19T10:36:15.654Z,6.28
2023-03-19T10:38:23.163Z,5.75
2023-03-19T10:40:34.413Z,6.55
2023-03-19T10:42:47.002Z,6.00
2023-03-19T10:44:52.558Z,6.80
2023-03-19T10:47:09.220Z,7.65
2023-03-19T10:49:15.256Z,6.30
2023-03-19T10:51:23.134Z,6.35
2023-03-19T10:53:36.262Z,9.02
2023-03-19T10:55:38.150Z,6.75
2023-03-19T10:57:46.244Z,6.75
2023-03-19T10:59:47.955Z,6.85
2023-03-19T11:01:49.765Z,7.00
2023-03-19T11:04:02.975Z,7.20
2023-03-19T11:06:17.569Z,8.75
2023-03-19T11:08:34.848Z,7.75
2023-03-19T11:10:45.877Z,8.45
2023-03-19T11:12:58.701Z,6.63
2023-03-19T11:15:04.296Z,7.35
2023-03-19T11:17:46.307Z,6.35
2023-03-19T11:19:59.264Z,6.55
2023-03-19T11:22:09.127Z,6.63
2023-03-19T11:26:19.379Z,6.90
2023-03-19T11:28:26.942Z,5.90
2023-03-19T11:30:38.162Z,6.20
2023-03-19T11:33:12.023Z,6.50
2023-03-19T11:35:33.185Z,9.32
2023-03-19T11:37:57.347Z,6.53
2023-03-19T11:40:03.866Z,7.15
2023-03-19T11:42:20.018Z,6.32
2023-03-19T11:44:54.665Z,6.75
2023-03-19T11:47:14.865Z,6.43
2023-03-19T11:49:57.385Z,9.23
2023-03-19T11:52:14.184Z,6.68
2023-03-19T11:54:42.163Z,8.45
2023-03-19T11:57:12.725Z,6.85
2023-03-19T11:59:26.320Z,6.43
2023-03-19T12:02:01.648Z,12.05
2023-03-19T12:04:26.632Z,6.63
2023-03-19T12:06:43.612Z,10.73
2023-03-19T12:08:58.603Z,8.10
2023-03-19T12:11:28.006Z,10.48
2023-03-19T12:13:44.310Z,4.32
2023-03-19T12:16:24.362Z,5.25
2023-03-19T12:18:47.535Z,5.30
2023-03-19T12:20:54.205Z,5.18
2023-03-19T12:23:20.512Z,4.95
2023-03-19T12:25:29.186Z,7.22
2023-03-19T12:27:46.127Z,4.95
2023-03-19T12:30:25.522Z,4.32
2023-03-19T12:32:46.626Z,6.85
2023-03-19T12:34:55.902Z,5.90
2023-03-19T12:37:15.879Z,4.78
2023-03-19T12:39:26.241Z,4.80
2023-03-19T12:41:29.723Z,7.95
2023-03-19T12:43:55.995Z,4.35
2023-03-19T12:46:07.702Z,4.35
2023-03-19T12:48:22.510Z,6.32
2023-03-19T12:50:26.277Z,6.03
2023-03-19T12:52:37.926Z,5.72
2023-03-19T12:54:47.275Z,4.10
2023-03-19T12:57:10.738Z,4.10
2023-03-19T12:59:32.858Z,4.63
2023-03-19T13:01:42.505Z,4.40
2023-03-19T13:04:18.446Z,4.18
2023-03-19T13:06:52.627Z,4.18
2023-03-19T13:09:26.199Z,4.47
2023-03-19T13:11:54.985Z,5.25
2023-03-19T13:14:04.271Z,4.40
2023-03-19T13:16:37.215Z,3.97
2023-03-19T13:18:50.587Z,3.85
2023-03-19T13:21:01.467Z,3.65
2023-03-19T13:23:06.498Z,3.88
2023-03-19T13:25:16.363Z,4.18
2023-03-19T13:29:34.075Z,5.40
2023-03-19T13:31:37.878Z,6.78
2023-03-19T13:33:51.628Z,5.00
2023-03-19T13:36:01.179Z,5.03
2023-03-19T13:38:17.662Z,5.40
2023-03-19T13:40:41.145Z,7.18
2023-03-19T13:42:43.744Z,4.47
2023-03-19T13:45:03.593Z,4.25
2023-03-19T13:47:27.000Z,5.72
2023-03-19T13:49:29.983Z,4.60
2023-03-19T13:51:33.095Z,6.50
2023-03-19T13:53:52.018Z,5.30
2023-03-19T13:56:29.125Z,5.05
2023-03-19T13:58:52.691Z,5.68
2023-03-19T14:00:59.024Z,5.70
2023-03-19T14:03:01.734Z,6.05
2023-03-19T14:05:08.529Z,4.00
2023-03-19T14:07:18.967Z,4.43
2023-03-19T14:09:34.137Z,5.10
2023-03-19T14:11:37.198Z,3.30
2023-03-19T14:13:42.097Z,3.90
2023-03-19T14:15:50.152Z,4.10
2023-03-19T14:17:51.614Z,4.35
2023-03-19T14:20:03.578Z,3.63
2023-03-19T14:22:39.512Z,3.80
2023-03-19T14:24:58.797Z,9.35
2023-03-19T14:27:14.606Z,10.27
2023-03-19T14:29:16.847Z,5.70
2023-03-19T14:31:26.787Z,7.00
2023-03-19T14:35:46.395Z,5.70
2023-03-19T14:37:55.518Z,3.92
2023-03-19T14:40:12.004Z,5.10
2023-03-19T14:42:21.152Z,6.85
2023-03-19T14:44:52.441Z,10.70
2023-03-19T14:47:15.364Z,6.53
2023-03-19T14:49:39.767Z,7.00
2023-03-19T14:51:53.193Z,9.70
2023-03-19T14:54:04.544Z,6.47
2023-03-19T14:56:19.155Z,9.02
2023-03-19T14:58:21.790Z,8.10
2023-03-19T15:00:24.436Z,18.25
2023-03-19T15:02:42.092Z,9.57
2023-03-19T15:04:48.425Z,5.32
2023-03-19T15:06:55.527Z,5.97
2023-03-19T15:09:00.922Z,8.60
2023-03-19T15:11:14.492Z,10.68
2023-03-19T15:13:18.683Z,29.77
2023-03-19T15:15:24.832Z,24.70
2023-03-19T15:17:30.904Z,8.82
2023-03-19T15:19:35.296Z,14.95
2023-03-19T15:21:40.893Z,7.85
2023-03-19T15:23:46.311Z,7.53
2023-03-19T15:25:51.181Z,6.82
2023-03-19T15:28:14.065Z,6.72
2023-03-19T15:30:32.583Z,7.72
2023-03-19T15:32:52.161Z,6.07
2023-03-19T15:34:57.640Z,5.82
2023-03-19T15:37:15.492Z,5.38
2023-03-19T15:39:18.393Z,7.47
2023-03-19T15:41:23.586Z,11.75
2023-03-19T15:43:26.231Z,8.82
2023-03-19T15:45:29.952Z,9.63
2023-03-19T15:47:33.961Z,56.58
2023-03-19T15:49:39.393Z,58.05
2023-03-19T15:51:43.024Z,63.47
2023-03-19T15:53:45.704Z,64.85
2023-03-19T15:55:50.873Z,198.07
2023-03-19T15:57:56.326Z,159.48
2023-03-19T16:00:00.421Z,65.05
2023-03-19T16:02:04.529Z,92.15
2023-03-19T16:04:08.574Z,135.02
2023-03-19T16:06:28.665Z,137.90
2023-03-19T16:08:31.074Z,166.45
2023-03-19T16:10:39.282Z,58.22
2023-03-19T16:12:41.544Z,47.33
2023-03-19T16:14:49.670Z,110.30
2023-03-19T16:16:53.346Z,80.38
2023-03-19T16:18:56.715Z,35.53
2023-03-19T16:21:08.755Z,26.52
2023-03-19T16:23:17.141Z,33.08
2023-03-19T16:25:19.844Z,38.10
2023-03-19T16:27:41.315Z,61.15
2023-03-19T16:29:45.646Z,70.10
2023-03-19T16:31:52.532Z,19.38
2023-03-19T16:33:58.100Z,16.42
2023-03-19T16:36:00.547Z,37.50
2023-03-19T16:38:28.371Z,33.47
2023-03-19T16:40:41.123Z,34.97
2023-03-19T16:42:54.148Z,26.52
2023-03-19T16:44:57.184Z,15.73
2023-03-19T16:46:58.830Z,13.13
2023-03-19T16:49:00.486Z,11.50
2023-03-19T16:51:02.182Z,14.90
2023-03-19T16:53:13.187Z,17.40
2023-03-19T16:55:25.554Z,17.10
2023-03-19T16:57:27.547Z,16.25
2023-03-19T16:59:30.900Z,70.70
2023-03-19T17:01:32.524Z,61.08
2023-03-19T17:03:34.141Z,36.50
2023-03-19T17:05:36.047Z,33.40
2023-03-19T17:07:37.758Z,40.58
2023-03-19T17:09:39.325Z,82.65
2023-03-19T17:11:42.934Z,57.15
2023-03-19T17:13:45.294Z,68.78
2023-03-19T17:15:49.281Z,67.38
2023-03-19T17:17:51.162Z,49.17
2023-03-19T17:19:52.710Z,38.50
2023-03-19T17:21:58.844Z,34.78
2023-03-19T17:24:27.238Z,26.70
2023-03-19T17:26:29.217Z,51.58
2023-03-19T17:28:32.506Z,66.28
2023-03-19T17:30:34.516Z,43.30
2023-03-19T17:32:37.633Z,101.82
2023-03-19T17:34:39.365Z,106.55
2023-03-19T17:36:42.621Z,78.45
2023-03-19T17:38:44.444Z,183.70
2023-03-19T17:40:47.584Z,54.58
2023-03-19T17:42:50.636Z,51.97
2023-03-19T17:44:52.251Z,64.38
2023-03-19T17:46:55.597Z,91.63
2023-03-19T17:48:57.363Z,100.03
2023-03-19T17:51:02.090Z,67.88
2023-03-19T17:53:03.711Z,37.90
2023-03-19T17:55:16.112Z,39.72
2023-03-19T17:57:17.954Z,34.28
2023-03-19T17:59:19.491Z,33.67
2023-03-19T18:01:23.655Z,79.10
2023-03-19T18:03:27.679Z,123.32
2023-03-19T18:05:29.238Z,56.47
2023-03-19T18:07:30.737Z,56.08
2023-03-19T18:09:33.997Z,57.38
2023-03-19T18:11:35.654Z,30.20
2023-03-19T18:13:37.251Z,30.52
2023-03-19T18:15:41.267Z,27.42
2023-03-19T18:17:48.014Z,24.20
2023-03-19T18:19:52.255Z,65.57
2023-03-19T18:21:53.803Z,61.03
2023-03-19T18:23:57.339Z,61.67
2023-03-19T18:25:59.063Z,63.50
2023-03-19T18:28:01.240Z,55.88
2023-03-19T18:30:02.900Z,83.40
2023-03-19T18:32:14.925Z,78.05
2023-03-19T18:34:17.726Z,85.75
2023-03-19T18:36:28.167Z,111.85
2023-03-19T18:38:29.792Z,230.32
2023-03-19T18:40:32.831Z,489.52
2023-03-19T18:42:34.422Z,660.15
2023-03-19T18:44:36.315Z,369.52
2023-03-19T18:46:39.164Z,275.00
2023-03-19T18:48:40.998Z,151.45
2023-03-19T18:50:42.522Z,124.60
2023-03-19T18:52:46.676Z,86.75
2023-03-19T18:54:48.389Z,120.75
2023-03-19T18:56:50.845Z,126.72
2023-03-19T18:58:54.205Z,123.70
2023-03-19T19:00:55.968Z,69.60
2023-03-19T19:02:58.977Z,93.00
2023-03-19T19:05:01.429Z,109.95
2023-03-19T19:07:03.143Z,111.35
2023-03-19T19:09:04.860Z,95.35
2023-03-19T19:11:06.471Z,77.43
2023-03-19T19:13:15.347Z,76.95
2023-03-19T19:15:28.866Z,57.80
2023-03-19T19:17:31.966Z,51.85
2023-03-19T19:19:33.506Z,41.40
2023-03-19T19:21:35.683Z,57.33
2023-03-19T19:23:37.235Z,51.78
2023-03-19T19:25:39.312Z,34.60
2023-03-19T19:27:41.037Z,49.47
2023-03-19T19:29:43.094Z,66.90
2023-03-19T19:31:44.689Z,51.55
2023-03-19T19:33:46.216Z,86.75
2023-03-19T19:35:48.438Z,110.35
2023-03-19T19:37:50.962Z,202.48
2023-03-19T19:39:52.932Z,144.55
2023-03-19T19:41:55.180Z,226.95
2023-03-19T19:43:58.149Z,172.52
2023-03-19T19:45:59.931Z,122.15
2023-03-19T19:48:01.562Z,85.82
2023-03-19T19:50:03.193Z,64.60
2023-03-19T19:52:05.026Z,72.32
2023-03-19T19:54:06.782Z,104.47
2023-03-19T19:56:17.302Z,71.97
2023-03-19T19:58:23.826Z,66.40
2023-03-19T20:00:28.728Z,61.90
2023-03-19T20:02:30.692Z,70.95
2023-03-19T20:04:32.212Z,100.68
2023-03-19T20:06:33.780Z,70.18
2023-03-19T20:08:35.338Z,79.85
2023-03-19T20:10:37.420Z,57.45
2023-03-19T20:12:44.576Z,58.25
2023-03-19T20:14:46.975Z,56.72
2023-03-19T20:16:48.796Z,46.40
2023-03-19T20:18:53.548Z,19.45
2023-03-19T20:20:56.575Z,22.30
2023-03-19T20:22:58.928Z,35.47
2023-03-19T20:25:00.958Z,82.35
2023-03-19T20:27:04.670Z,65.90
2023-03-19T20:29:07.760Z,59.15
2023-03-19T20:31:17.149Z,71.07
2023-03-19T20:33:19.416Z,75.13
2023-03-19T20:35:26.734Z,33.28
2023-03-19T20:37:29.196Z,43.65
2023-03-19T20:39:30.816Z,48.60
2023-03-19T20:41:32.433Z,44.13
2023-03-19T20:43:35.523Z,48.42
2023-03-19T20:45:38.662Z,31.90
2023-03-19T20:47:40.800Z,36.78
2023-03-19T20:49:42.402Z,64.20
2023-03-19T20:51:44.071Z,42.63
2023-03-19T20:53:48.435Z,36.92
2023-03-19T20:55:51.019Z,29.30
2023-03-19T20:57:53.518Z,28.15
2023-03-19T20:59:55.805Z,71.20
2023-03-19T21:01:57.426Z,95.85
2023-03-19T21:03:59.011Z,73.60
2023-03-19T21:06:06.644Z,52.33
2023-03-19T21:08:15.964Z,25.88
2023-03-19T21:10:39.709Z,20.45
2023-03-19T21:12:41.236Z,22.73
2023-03-19T21:14:42.753Z,31.15
2023-03-19T21:16:44.403Z,24.65
2023-03-19T21:18:47.275Z,21.58
2023-03-19T21:20:54.635Z,16.02
2023-03-19T21:23:04.512Z,16.08
2023-03-19T21:27:36.220Z,31.90
2023-03-19T21:29:38.043Z,35.22
2023-03-19T21:31:39.622Z,45.40
2023-03-19T21:33:43.373Z,38.95
2023-03-19T21:35:45.002Z,34.67
2023-03-19T21:37:47.564Z,27.63
2023-03-19T21:39:49.072Z,29.48
2023-03-19T21:41:50.941Z,29.35
2023-03-19T21:43:57.843Z,25.80
2023-03-19T21:46:04.168Z,22.98
2023-03-19T21:48:31.073Z,20.08
2023-03-19T21:50:33.230Z,24.33
2023-03-19T21:52:49.825Z,38.55
2023-03-19T21:54:56.333Z,39.50
2023-03-19T21:56:57.884Z,43.92
2023-03-19T21:59:08.434Z,40.10
2023-03-19T22:01:16.612Z,38.72
2023-03-19T22:03:20.981Z,25.92
2023-03-19T22:05:28.068Z,19.48
2023-03-19T22:07:29.563Z,19.52
2023-03-19T22:09:31.191Z,19.27
2023-03-19T22:11:35.940Z,18.25
2023-03-19T22:13:37.660Z,15.90
2023-03-19T22:15:39.175Z,16.13
2023-03-19T22:17:41.045Z,18.02
2023-03-19T22:19:42.583Z,20.20
2023-03-19T22:21:44.177Z,20.60
2023-03-19T22:23:46.745Z,23.67
2023-03-19T22:25:51.257Z,32.92
2023-03-19T22:27:53.032Z,27.05
2023-03-19T22:29:54.914Z,24.38
2023-03-19T22:31:56.890Z,22.83
2023-03-19T22:33:58.755Z,17.45
2023-03-19T22:36:00.387Z,16.38
2023-03-19T22:38:01.954Z,16.80
2023-03-19T22:40:03.670Z,16.95
2023-03-19T22:42:05.274Z,17.38
2023-03-19T22:44:18.617Z,15.95
2023-03-19T22:46:20.683Z,16.05
2023-03-19T22:48:23.088Z,16.55
2023-03-19T22:50:30.237Z,25.15
2023-03-19T22:52:31.782Z,43.38
2023-03-19T22:54:33.293Z,24.02
2023-03-19T22:56:34.837Z,27.88
2023-03-19T22:58:36.422Z,25.80
2023-03-19T23:00:38.443Z,23.77
2023-03-19T23:02:40.458Z,25.27
2023-03-19T23:04:42.206Z,21.55
2023-03-19T23:06:43.949Z,20.45
2023-03-19T23:08:45.700Z,19.10
2023-03-19T23:10:48.020Z,17.92
2023-03-19T23:12:49.633Z,19.48
2023-03-19T23:14:51.170Z,25.45
2023-03-19T23:16:52.816Z,22.25
2023-03-19T23:20:55.385Z,18.67
2023-03-19T23:22:57.697Z,18.42
2023-03-19T23:24:59.219Z,18.77
2023-03-19T23:27:01.454Z,21.02
2023-03-19T23:29:05.708Z,20.42
2023-03-19T23:31:10.183Z,22.23
2023-03-19T23:33:12.786Z,21.02
2023-03-19T23:35:23.636Z,18.13
2023-03-19T23:37:25.195Z,19.05
2023-03-19T23:39:26.874Z,19.02
2023-03-19T23:41:30.006Z,16.90
2023-03-19T23:43:32.118Z,18.23
2023-03-19T23:45:42.238Z,14.88
2023-03-19T23:47:43.749Z,18.88
2023-03-19T23:49:45.808Z,41.83
2023-03-19T23:51:47.828Z,49.42
2023-03-19T23:53:49.394Z,51.67
2023-03-19T23:55:57.398Z,41.17
2023-03-19T23:57:59.199Z,73.38
